Time;durP1;ratioP1;P1;durP2;ratioP2;P2;SDS_P1;SDS_P2;PMS_P1;PMS_P2;Temp;Humidity;BMP_temperature;BMP_pressure;BME280_temperature;BME280_humidity;BME280_pressure;Samples;Min_cycle;Max_cycle;Signal;HPM_P1;HPM_P2
2021/10/15 00:00:06;;;;;;;;;;;21.00;59.50;;;;;;5095844;28;1438;-70
2021/10/15 00:02:31;;;;;;;;;;;21.00;59.60;;;;;;5077723;28;1371;-71
2021/10/15 00:04:57;;;;;;;;;;;21.00;59.60;;;;;;5095064;28;1906;-70
2021/10/15 00:07:22;;;;;;;;;;;21.00;59.60;;;;;;5096291;28;1062;-70
2021/10/15 00:09:47;;;;;;;;;;;21.00;59.70;;;;;;5095861;28;1292;-70
2021/10/15 00:12:13;;;;;;;;;;;21.00;59.60;;;;;;5073932;28;1301;-70
2021/10/15 00:14:39;;;;;;;;;;;21.00;59.70;;;;;;5087530;28;1234;-69
2021/10/15 00:17:04;;;;;;;;;;;21.00;59.70;;;;;;5075559;28;1421;-70
2021/10/15 00:19:29;;;;;;;;;;;21.00;59.70;;;;;;5094277;28;1285;-70
2021/10/15 00:21:55;;;;;;;;;;;21.00;59.70;;;;;;5076834;28;1259;-70
2021/10/15 00:24:20;;;;;;;;;;;21.00;59.70;;;;;;5093543;28;1969;-70
2021/10/15 00:26:46;;;;;;;;;;;20.90;59.70;;;;;;5075049;28;1254;-70
2021/10/15 00:29:11;;;;;;;;;;;21.00;59.70;;;;;;5075853;28;1339;-71
2021/10/15 00:31:37;;;;;;;;;;;21.00;59.70;;;;;;5089975;28;1230;-70
2021/10/15 00:34:02;;;;;;;;;;;21.00;59.80;;;;;;5095368;28;1227;-70
2021/10/15 00:36:28;;;;;;;;;;;21.00;59.80;;;;;;5095835;28;1251;-70
2021/10/15 00:38:53;;;;;;;;;;;20.90;59.70;;;;;;5095531;28;1389;-70
2021/10/15 00:41:19;;;;;;;;;;;20.90;59.80;;;;;;5095485;28;1253;-71
2021/10/15 00:44:00;;;;;;;;;;;20.90;59.80;;;;;;5094937;28;1894;-71
2021/10/15 00:46:26;;;;;;;;;;;20.90;59.80;;;;;;5076737;28;1367;-70
2021/10/15 00:48:51;;;;;;;;;;;20.90;59.80;;;;;;5096075;28;1296;-70
2021/10/15 00:51:17;;;;;;;;;;;20.90;59.80;;;;;;5096078;28;1437;-70
2021/10/15 00:53:42;;;;;;;;;;;20.90;59.80;;;;;;5077609;28;1418;-70
2021/10/15 00:56:07;;;;;;;;;;;20.90;59.80;;;;;;5093275;28;1354;-70
2021/10/15 00:58:33;;;;;;;;;;;20.90;59.80;;;;;;5078789;28;1382;-70
2021/10/15 01:00:58;;;;;;;;;;;20.90;59.90;;;;;;5093142;28;1244;-69
2021/10/15 01:03:24;;;;;;;;;;;20.90;59.90;;;;;;5093198;28;1939;-69
2021/10/15 01:05:49;;;;;;;;;;;20.90;59.90;;;;;;5076140;28;1435;-70
2021/10/15 01:08:15;;;;;;;;;;;20.90;59.90;;;;;;5072553;28;1100;-69
2021/10/15 01:10:40;;;;;;;;;;;20.90;59.90;;;;;;5093448;28;1339;-69
2021/10/15 01:13:05;;;;;;;;;;;20.90;59.90;;;;;;5093131;28;1405;-69
2021/10/15 01:15:31;;;;;;;;;;;20.90;60.00;;;;;;5076064;28;1323;-68
2021/10/15 01:17:56;;;;;;;;;;;20.90;59.90;;;;;;5095862;28;1366;-69
2021/10/15 01:20:22;;;;;;;;;;;20.90;60.00;;;;;;5094330;28;1381;-70
2021/10/15 01:22:47;;;;;;;;;;;20.90;60.00;;;;;;5076224;28;1398;-69
2021/10/15 01:25:13;;;;;;;;;;;20.90;60.00;;;;;;5096282;28;1913;-70
2021/10/15 01:27:38;;;;;;;;;;;20.90;60.00;;;;;;5078085;28;1359;-69
2021/10/15 01:30:04;;;;;;;;;;;20.90;60.00;;;;;;5094264;28;1286;-69
2021/10/15 01:32:30;;;;;;;;;;;20.90;60.00;;;;;;5076374;28;1340;-69
2021/10/15 01:34:55;;;;;;;;;;;20.80;60.00;;;;;;5102768;28;1051;-69
2021/10/15 01:37:21;;;;;;;;;;;20.80;60.00;;;;;;5099270;28;1364;-69
2021/10/15 01:39:46;;;;;;;;;;;20.80;60.00;;;;;;5104184;28;1307;-69
2021/10/15 01:44:56;;;;;;;;;;;20.80;60.10;;;;;;5092019;28;1949;-68
2021/10/15 01:47:21;;;;;;;;;;;20.80;60.10;;;;;;5074899;28;1555;-68
2021/10/15 01:49:47;;;;;;;;;;;20.80;60.10;;;;;;5093459;28;1320;-69
2021/10/15 01:52:12;;;;;;;;;;;20.80;60.10;;;;;;5095938;28;1213;-67
2021/10/15 01:54:38;;;;;;;;;;;20.80;60.10;;;;;;5095349;28;1400;-70
2021/10/15 01:57:03;;;;;;;;;;;20.80;60.10;;;;;;5094911;28;1443;-69
2021/10/15 01:59:28;;;;;;;;;;;20.80;60.10;;;;;;5093707;28;1388;-70
2021/10/15 02:01:54;;;;;;;;;;;20.80;60.10;;;;;;5074269;28;1394;-70
2021/10/15 02:04:19;;;;;;;;;;;20.80;60.10;;;;;;5092948;28;1894;-70
2021/10/15 02:06:45;;;;;;;;;;;20.80;60.20;;;;;;5094440;28;1401;-69
2021/10/15 02:09:10;;;;;;;;;;;20.80;60.10;;;;;;5093517;28;1447;-69
2021/10/15 02:11:35;;;;;;;;;;;20.80;60.20;;;;;;5090893;28;1291;-69
2021/10/15 02:14:01;;;;;;;;;;;20.80;60.20;;;;;;5091596;28;1248;-69
2021/10/15 02:16:26;;;;;;;;;;;20.80;60.20;;;;;;5090811;28;1265;-69
2021/10/15 02:18:52;;;;;;;;;;;20.80;60.20;;;;;;5091886;28;1421;-70
2021/10/15 02:21:17;;;;;;;;;;;20.80;60.20;;;;;;5093888;28;1317;-69
2021/10/15 02:23:44;;;;;;;;;;;20.80;60.30;;;;;;5094322;28;1897;-70
2021/10/15 02:26:09;;;;;;;;;;;20.80;60.20;;;;;;5092959;28;1332;-70
2021/10/15 02:28:35;;;;;;;;;;;20.80;60.30;;;;;;5095022;28;1385;-69
2021/10/15 02:31:00;;;;;;;;;;;20.80;60.30;;;;;;5094290;28;1309;-71
2021/10/15 02:33:25;;;;;;;;;;;20.80;60.30;;;;;;5092794;28;1205;-70
2021/10/15 02:35:51;;;;;;;;;;;20.80;60.30;;;;;;5091156;28;1354;-70
2021/10/15 02:38:16;;;;;;;;;;;20.80;60.30;;;;;;5091356;28;1270;-70
2021/10/15 02:40:42;;;;;;;;;;;20.80;60.40;;;;;;5092801;28;1329;-70
2021/10/15 02:43:07;;;;;;;;;;;20.80;60.30;;;;;;5092795;28;1265;-70
2021/10/15 02:45:37;;;;;;;;;;;20.70;60.30;;;;;;5091978;28;1951;-70
2021/10/15 02:48:03;;;;;;;;;;;20.80;60.40;;;;;;5078113;28;1623;-70
2021/10/15 02:50:28;;;;;;;;;;;20.80;60.40;;;;;;5078699;28;1304;-69
2021/10/15 02:52:54;;;;;;;;;;;20.80;60.40;;;;;;5078191;28;1528;-70
2021/10/15 02:55:19;;;;;;;;;;;20.80;60.40;;;;;;5101465;28;1358;-70
2021/10/15 02:57:45;;;;;;;;;;;20.70;60.30;;;;;;5104569;28;1089;-69
2021/10/15 03:00:10;;;;;;;;;;;20.70;60.30;;;;;;5096847;28;1301;-70
2021/10/15 03:02:36;;;;;;;;;;;20.80;60.40;;;;;;5096559;28;1241;-70
2021/10/15 03:05:01;;;;;;;;;;;20.70;60.40;;;;;;5097441;28;1893;-70
2021/10/15 03:07:27;;;;;;;;;;;20.70;60.40;;;;;;5079273;28;1252;-70
2021/10/15 03:09:52;;;;;;;;;;;20.70;60.40;;;;;;5096293;28;1299;-69
2021/10/15 03:12:17;;;;;;;;;;;20.70;60.40;;;;;;5097815;28;1255;-69
2021/10/15 03:14:43;;;;;;;;;;;20.70;60.40;;;;;;5097273;28;1376;-69
2021/10/15 03:17:08;;;;;;;;;;;20.70;60.50;;;;;;5080262;28;1257;-69
2021/10/15 03:19:35;;;;;;;;;;;20.70;60.40;;;;;;5098059;28;1330;-70
2021/10/15 03:22:00;;;;;;;;;;;20.70;60.50;;;;;;5080398;28;1483;-69
2021/10/15 03:24:25;;;;;;;;;;;20.70;60.50;;;;;;5079526;28;1886;-69
2021/10/15 03:26:51;;;;;;;;;;;20.70;60.50;;;;;;5097668;28;1274;-69
2021/10/15 03:29:16;;;;;;;;;;;20.70;60.50;;;;;;5079668;28;1450;-69
2021/10/15 03:31:42;;;;;;;;;;;20.70;60.50;;;;;;5098241;28;1256;-69
2021/10/15 03:34:07;;;;;;;;;;;20.70;60.50;;;;;;5095632;28;1288;-69
2021/10/15 03:36:32;;;;;;;;;;;20.70;60.50;;;;;;5096029;28;1280;-70
2021/10/15 03:38:58;;;;;;;;;;;20.70;60.50;;;;;;5096797;28;1365;-70
2021/10/15 03:41:23;;;;;;;;;;;20.70;60.50;;;;;;5089767;28;1266;-69
2021/10/15 03:43:49;;;;;;;;;;;20.70;60.40;;;;;;5095826;28;1953;-69
2021/10/15 03:46:14;;;;;;;;;;;20.80;60.50;;;;;;5097991;28;1355;-69
2021/10/15 03:48:40;;;;;;;;;;;20.80;60.40;;;;;;5080695;28;1495;-68
2021/10/15 03:51:05;;;;;;;;;;;20.80;60.30;;;;;;5098144;28;1309;-69
2021/10/15 03:53:30;;;;;;;;;;;20.80;60.30;;;;;;5097346;28;1270;-70
2021/10/15 03:55:56;;;;;;;;;;;20.80;60.20;;;;;;5097280;28;1261;-69
2021/10/15 03:58:21;;;;;;;;;;;20.90;60.10;;;;;;5098489;28;1206;-70
2021/10/15 04:00:47;;;;;;;;;;;20.90;60.00;;;;;;5082356;28;1839;-69
2021/10/15 04:03:12;;;;;;;;;;;20.90;60.00;;;;;;5074396;28;1062;-69
2021/10/15 04:05:37;;;;;;;;;;;20.90;59.90;;;;;;5093886;28;1947;-70
2021/10/15 04:08:03;;;;;;;;;;;21.00;59.90;;;;;;5095037;28;1296;-70
2021/10/15 04:10:28;;;;;;;;;;;21.00;59.80;;;;;;5094266;28;1374;-70
2021/10/15 04:12:54;;;;;;;;;;;21.00;59.80;;;;;;5076787;28;1359;-70
2021/10/15 04:15:19;;;;;;;;;;;21.00;59.80;;;;;;5093248;28;1335;-71
2021/10/15 04:17:45;;;;;;;;;;;21.00;59.70;;;;;;5093599;28;1260;-70
2021/10/15 04:20:10;;;;;;;;;;;21.00;59.70;;;;;;5093378;28;1360;-70
2021/10/15 04:22:36;;;;;;;;;;;21.00;59.60;;;;;;5093658;28;1287;-70
2021/10/15 04:25:01;;;;;;;;;;;21.00;59.60;;;;;;5073828;28;1961;-70
2021/10/15 04:27:26;;;;;;;;;;;21.00;59.60;;;;;;5095231;28;1239;-71
2021/10/15 04:29:52;;;;;;;;;;;21.00;59.50;;;;;;5085872;28;1405;-71
2021/10/15 04:32:17;;;;;;;;;;;21.10;59.60;;;;;;5093022;28;1389;-71
2021/10/15 04:34:43;;;;;;;;;;;21.10;59.50;;;;;;5092164;28;1280;-70
2021/10/15 04:37:08;;;;;;;;;;;21.10;59.50;;;;;;5094160;28;1139;-69
2021/10/15 04:39:34;;;;;;;;;;;21.10;59.50;;;;;;5092416;28;1377;-70
2021/10/15 04:41:59;;;;;;;;;;;21.10;59.50;;;;;;5093004;28;1263;-70
2021/10/15 04:44:24;;;;;;;;;;;21.10;59.50;;;;;;5092122;28;1901;-69
2021/10/15 04:46:50;;;;;;;;;;;21.10;59.40;;;;;;5092263;28;1293;-70
2021/10/15 04:49:16;;;;;;;;;;;21.10;59.40;;;;;;5092383;28;1283;-69
2021/10/15 04:51:41;;;;;;;;;;;21.10;59.40;;;;;;5087857;28;1752;-69
2021/10/15 04:54:07;;;;;;;;;;;21.10;59.40;;;;;;5093109;28;1037;-69
2021/10/15 04:56:33;;;;;;;;;;;21.10;59.40;;;;;;5092509;28;1531;-70
2021/10/15 04:58:58;;;;;;;;;;;21.10;59.40;;;;;;5074609;28;1277;-71
2021/10/15 05:01:24;;;;;;;;;;;21.10;59.40;;;;;;5092720;28;1261;-71
2021/10/15 05:03:49;;;;;;;;;;;21.10;59.40;;;;;;5092556;28;1953;-69
2021/10/15 05:06:14;;;;;;;;;;;21.10;59.40;;;;;;5091445;28;1244;-69
2021/10/15 05:09:26;;;;;;;;;;;21.20;59.40;;;;;;5092322;28;1380;-69
2021/10/15 05:11:29;;;;;;;;;;;21.10;59.30;;;;;;5083865;28;1354;-70
2021/10/15 05:13:54;;;;;;;;;;;21.10;59.30;;;;;;5074346;28;1143;-69
2021/10/15 05:16:20;;;;;;;;;;;21.10;59.30;;;;;;5091287;28;1299;-69
2021/10/15 05:18:45;;;;;;;;;;;21.10;59.30;;;;;;5092319;28;1332;-69
2021/10/15 05:21:10;;;;;;;;;;;21.10;59.30;;;;;;5092010;28;1302;-69
2021/10/15 05:23:36;;;;;;;;;;;21.20;59.30;;;;;;5073635;28;1910;-70
2021/10/15 05:26:01;;;;;;;;;;;21.10;59.30;;;;;;5070920;28;2415;-69
2021/10/15 05:28:27;;;;;;;;;;;21.10;59.30;;;;;;5092254;28;1286;-68
2021/10/15 05:30:54;;;;;;;;;;;21.10;59.30;;;;;;5088841;28;1455;-68
2021/10/15 05:33:20;;;;;;;;;;;21.20;59.30;;;;;;5095968;28;1215;-69
2021/10/15 05:35:45;;;;;;;;;;;21.20;59.30;;;;;;5092757;28;1409;-69
2021/10/15 05:38:10;;;;;;;;;;;21.20;59.30;;;;;;5092305;28;1244;-69
2021/10/15 05:40:36;;;;;;;;;;;21.10;59.20;;;;;;5092803;28;1672;-69
2021/10/15 05:43:01;;;;;;;;;;;21.20;59.30;;;;;;5095177;28;1325;-71
2021/10/15 05:45:27;;;;;;;;;;;21.20;59.30;;;;;;5091695;28;1897;-70
2021/10/15 05:47:52;;;;;;;;;;;21.20;59.30;;;;;;5093201;28;1363;-71
2021/10/15 05:50:17;;;;;;;;;;;21.10;59.20;;;;;;5091708;28;1337;-70
2021/10/15 05:52:46;;;;;;;;;;;21.20;59.30;;;;;;5089172;28;1295;-71
2021/10/15 06:00:26;;;;;;;;;;;21.20;59.20;;;;;;5076456;28;1309;-69
2021/10/15 06:02:52;;;;;;;;;;;21.20;59.20;;;;;;5073851;28;1371;-69
2021/10/15 06:15:32;;;;;;;;;;;21.20;59.20;;;;;;5075714;28;1250;-69
2021/10/15 06:17:57;;;;;;;;;;;21.20;59.20;;;;;;5091442;28;1304;-69
2021/10/15 06:20:23;;;;;;;;;;;21.20;59.20;;;;;;5093430;28;1317;-71
2021/10/15 06:22:48;;;;;;;;;;;21.20;59.20;;;;;;5078068;28;1364;-70
2021/10/15 06:25:14;;;;;;;;;;;21.20;59.20;;;;;;5095963;28;1909;-71
2021/10/15 06:27:39;;;;;;;;;;;21.20;59.10;;;;;;5096617;28;1238;-71
2021/10/15 06:30:05;;;;;;;;;;;21.30;59.10;;;;;;5097549;28;1342;-72
2021/10/15 06:32:30;;;;;;;;;;;21.30;58.90;;;;;;5078181;28;1303;-70
2021/10/15 06:34:55;;;;;;;;;;;21.40;58.90;;;;;;5094920;28;1316;-71
2021/10/15 06:37:21;;;;;;;;;;;21.50;58.80;;;;;;5077502;28;1364;-71
2021/10/15 06:39:46;;;;;;;;;;;21.60;58.70;;;;;;5096305;28;1336;-69
2021/10/15 06:42:12;;;;;;;;;;;21.70;58.60;;;;;;5076929;28;1292;-69
2021/10/15 06:44:37;;;;;;;;;;;21.70;58.40;;;;;;5094333;28;1983;-69
2021/10/15 06:47:03;;;;;;;;;;;21.80;58.20;;;;;;5095653;28;1370;-71
2021/10/15 06:49:28;;;;;;;;;;;21.90;58.00;;;;;;5077253;28;1466;-71
2021/10/15 06:51:53;;;;;;;;;;;22.00;57.80;;;;;;5097954;28;1274;-72
2021/10/15 06:54:19;;;;;;;;;;;22.10;58.20;;;;;;5104933;28;1263;-71
2021/10/15 06:56:44;;;;;;;;;;;22.10;57.50;;;;;;5077284;28;1266;-71
2021/10/15 06:59:10;;;;;;;;;;;22.20;57.30;;;;;;5077962;28;1359;-69
2021/10/15 07:01:35;;;;;;;;;;;22.30;57.20;;;;;;5096108;28;1177;-69
2021/10/15 07:04:01;;;;;;;;;;;22.30;57.10;;;;;;5105196;28;1959;-69
2021/10/15 07:06:27;;;;;;;;;;;22.30;57.00;;;;;;5098742;28;1280;-69
2021/10/15 07:08:52;;;;;;;;;;;22.40;56.90;;;;;;5095447;28;1365;-69
2021/10/15 07:11:18;;;;;;;;;;;22.40;56.80;;;;;;5095597;28;1244;-69
2021/10/15 07:13:43;;;;;;;;;;;22.40;56.70;;;;;;5095756;28;1391;-68
2021/10/15 07:16:10;;;;;;;;;;;22.40;56.70;;;;;;5076946;28;1046;-68
2021/10/15 07:18:38;;;;;;;;;;;22.50;57.30;;;;;;5095904;28;1349;-69
2021/10/15 07:21:04;;;;;;;;;;;22.50;56.70;;;;;;5096501;28;1327;-69
2021/10/15 07:23:29;;;;;;;;;;;22.50;56.70;;;;;;5096114;28;1968;-69
2021/10/15 07:25:54;;;;;;;;;;;22.50;56.70;;;;;;5094611;28;1322;-70
2021/10/15 07:28:20;;;;;;;;;;;22.50;56.70;;;;;;5096862;28;1055;-70
2021/10/15 07:30:45;;;;;;;;;;;22.50;56.70;;;;;;5078529;28;1296;-70
2021/10/15 07:33:11;;;;;;;;;;;22.50;56.70;;;;;;5096215;28;1324;-70
2021/10/15 07:35:36;;;;;;;;;;;22.50;56.70;;;;;;5096083;28;1228;-70
2021/10/15 07:38:02;;;;;;;;;;;22.50;56.70;;;;;;5078704;28;1316;-70
2021/10/15 07:40:27;;;;;;;;;;;22.50;56.70;;;;;;5096273;28;1319;-70
2021/10/15 07:42:53;;;;;;;;;;;22.50;56.70;;;;;;5096467;28;1363;-70
2021/10/15 07:45:18;;;;;;;;;;;22.50;56.80;;;;;;5095921;28;1930;-70
2021/10/15 07:47:44;;;;;;;;;;;22.50;56.80;;;;;;5096382;28;1290;-70
2021/10/15 07:50:09;;;;;;;;;;;22.50;56.80;;;;;;5096045;28;1315;-69
2021/10/15 07:52:34;;;;;;;;;;;22.40;56.80;;;;;;5077932;28;1682;-69
2021/10/15 07:55:00;;;;;;;;;;;22.40;56.80;;;;;;5076086;28;1337;-69
2021/10/15 07:57:25;;;;;;;;;;;22.40;56.80;;;;;;5094623;28;1269;-69
2021/10/15 07:59:51;;;;;;;;;;;22.40;56.80;;;;;;5094431;28;1284;-69
2021/10/15 08:02:16;;;;;;;;;;;22.40;56.90;;;;;;5095866;28;1247;-70
2021/10/15 08:04:42;;;;;;;;;;;22.40;56.90;;;;;;5094467;28;1949;-70
2021/10/15 08:07:07;;;;;;;;;;;22.40;57.00;;;;;;5095448;28;1370;-69
2021/10/15 08:09:33;;;;;;;;;;;22.40;57.00;;;;;;5077033;28;1313;-70
2021/10/15 08:11:58;;;;;;;;;;;22.40;57.10;;;;;;5095513;28;1271;-69
2021/10/15 08:14:23;;;;;;;;;;;22.40;57.10;;;;;;5076697;28;1553;-69
2021/10/15 08:16:49;;;;;;;;;;;22.40;57.10;;;;;;5095564;28;1137;-70
2021/10/15 08:19:14;;;;;;;;;;;22.40;57.10;;;;;;5094368;28;1390;-69
2021/10/15 08:21:40;;;;;;;;;;;22.30;57.10;;;;;;5095174;28;1312;-69
2021/10/15 08:24:05;;;;;;;;;;;22.30;57.10;;;;;;5075092;28;1905;-69
2021/10/15 08:26:31;;;;;;;;;;;22.30;57.20;;;;;;5087498;28;971;-69
2021/10/15 08:29:00;;;;;;;;;;;22.30;57.20;;;;;;5094029;28;1800;-69
2021/10/15 08:31:26;;;;;;;;;;;22.30;57.20;;;;;;5094586;28;1421;-69
2021/10/15 08:33:51;;;;;;;;;;;22.30;57.20;;;;;;5093473;28;1307;-69
2021/10/15 08:36:17;;;;;;;;;;;22.30;57.30;;;;;;5093880;28;1371;-70
2021/10/15 08:38:43;;;;;;;;;;;22.30;57.30;;;;;;5094072;28;1300;-69
2021/10/15 08:41:09;;;;;;;;;;;22.30;57.30;;;;;;5094062;28;1383;-69
2021/10/15 08:43:35;;;;;;;;;;;22.30;57.30;;;;;;5073875;28;1902;-70
2021/10/15 08:46:01;;;;;;;;;;;22.30;57.40;;;;;;5075323;28;1280;-69
2021/10/15 08:48:26;;;;;;;;;;;22.30;57.40;;;;;;5094347;28;1271;-69
2021/10/15 08:50:52;;;;;;;;;;;22.20;57.40;;;;;;5094091;28;1292;-70
2021/10/15 08:53:17;;;;;;;;;;;22.20;57.40;;;;;;5076250;28;1041;-70
2021/10/15 08:55:43;;;;;;;;;;;22.20;57.40;;;;;;5075826;28;1043;-69
2021/10/15 08:58:08;;;;;;;;;;;22.20;57.40;;;;;;5092715;28;1062;-69
2021/10/15 09:00:35;;;;;;;;;;;22.20;57.50;;;;;;5093005;28;1317;-70
2021/10/15 09:03:19;;;;;;;;;;;22.20;57.50;;;;;;5074897;28;1304;-69
2021/10/15 09:06:00;;;;;;;;;;;22.20;57.60;;;;;;5073658;28;1961;-69
2021/10/15 09:08:27;;;;;;;;;;;22.20;57.60;;;;;;5074596;28;1346;-70
2021/10/15 09:10:52;;;;;;;;;;;22.10;57.70;;;;;;5075061;28;1336;-69
2021/10/15 09:13:19;;;;;;;;;;;22.10;57.70;;;;;;5092621;28;1426;-70
2021/10/15 09:15:47;;;;;;;;;;;22.10;57.70;;;;;;5092136;28;1291;-69
2021/10/15 09:18:14;;;;;;;;;;;22.10;57.80;;;;;;5074354;28;1066;-69
2021/10/15 09:20:39;;;;;;;;;;;22.10;57.80;;;;;;5074933;28;1331;-69
2021/10/15 09:23:05;;;;;;;;;;;22.10;57.80;;;;;;5093812;28;1276;-70
2021/10/15 09:25:34;;;;;;;;;;;22.10;57.90;;;;;;5092697;28;1898;-69
2021/10/15 09:27:59;;;;;;;;;;;22.10;57.90;;;;;;5075051;28;1381;-69
2021/10/15 09:30:25;;;;;;;;;;;22.10;57.90;;;;;;5075256;28;1431;-70
2021/10/15 09:32:51;;;;;;;;;;;22.10;57.90;;;;;;5075425;28;1279;-70
2021/10/15 09:35:18;;;;;;;;;;;22.10;57.90;;;;;;5093630;28;1272;-69
2021/10/15 09:37:44;;;;;;;;;;;22.10;57.90;;;;;;5075515;28;1343;-70
2021/10/15 09:40:10;;;;;;;;;;;22.10;57.90;;;;;;5093730;28;1334;-69
2021/10/15 09:42:37;;;;;;;;;;;22.10;57.90;;;;;;5075731;28;1252;-69
2021/10/15 09:45:12;;;;;;;;;;;22.10;57.90;;;;;;5075324;28;1894;-69
2021/10/15 09:47:38;;;;;;;;;;;22.20;57.80;;;;;;5077126;28;1352;-70
2021/10/15 09:50:04;;;;;;;;;;;22.20;57.90;;;;;;5075241;28;1384;-70
2021/10/15 09:52:34;;;;;;;;;;;22.20;57.80;;;;;;5075635;28;1292;-69
2021/10/15 09:55:01;;;;;;;;;;;22.20;57.70;;;;;;5074415;28;1361;-69
2021/10/15 09:57:30;;;;;;;;;;;22.20;57.60;;;;;;5090766;28;1843;-69
2021/10/15 09:59:56;;;;;;;;;;;22.30;57.60;;;;;;5085859;28;1820;-70
2021/10/15 10:02:22;;;;;;;;;;;22.30;57.60;;;;;;5073103;28;1082;-69
2021/10/15 10:04:48;;;;;;;;;;;22.30;57.50;;;;;;5073530;28;1890;-69
2021/10/15 10:07:13;;;;;;;;;;;22.40;57.50;;;;;;5074141;28;1268;-69
2021/10/15 10:09:38;;;;;;;;;;;22.40;57.40;;;;;;5072796;28;1823;-69
2021/10/15 10:12:04;;;;;;;;;;;22.40;57.40;;;;;;5091669;28;1101;-69
2021/10/15 10:14:30;;;;;;;;;;;22.40;57.40;;;;;;5071907;28;1320;-69
2021/10/15 10:16:56;;;;;;;;;;;22.40;57.40;;;;;;5091369;28;1109;-69
2021/10/15 10:19:23;;;;;;;;;;;22.40;57.30;;;;;;5074410;28;1336;-69
2021/10/15 10:21:48;;;;;;;;;;;22.40;57.30;;;;;;5074371;28;1410;-69
2021/10/15 10:24:15;;;;;;;;;;;22.40;57.30;;;;;;5073605;28;1918;-69
2021/10/15 10:26:43;;;;;;;;;;;22.40;57.30;;;;;;5092037;28;1274;-69
2021/10/15 10:29:09;;;;;;;;;;;22.40;57.30;;;;;;5074113;28;1339;-69
2021/10/15 10:31:34;;;;;;;;;;;22.40;57.30;;;;;;5092134;28;1094;-70
2021/10/15 10:34:00;;;;;;;;;;;22.40;57.30;;;;;;5092071;28;1082;-69
2021/10/15 10:36:27;;;;;;;;;;;22.40;57.30;;;;;;5073919;28;1063;-69
2021/10/15 10:38:52;;;;;;;;;;;22.40;57.40;;;;;;5073901;28;1410;-69
2021/10/15 10:41:19;;;;;;;;;;;22.40;57.40;;;;;;5092411;28;1114;-69
2021/10/15 10:43:44;;;;;;;;;;;22.40;57.40;;;;;;5088712;28;1971;-69
2021/10/15 10:46:23;;;;;;;;;;;22.40;57.50;;;;;;5091312;28;1126;-69
2021/10/15 10:48:48;;;;;;;;;;;22.40;57.50;;;;;;5091908;28;1292;-69
2021/10/15 10:51:27;;;;;;;;;;;22.30;57.50;;;;;;5092351;28;1066;-69
2021/10/15 10:54:08;;;;;;;;;;;22.30;57.50;;;;;;5072459;28;1781;-70
2021/10/15 10:56:36;;;;;;;;;;;22.30;57.60;;;;;;5069176;28;1887;-69
2021/10/15 10:59:17;;;;;;;;;;;22.30;57.60;;;;;;5091702;28;1318;-70
2021/10/15 11:02:01;;;;;;;;;;;22.30;57.70;;;;;;5087518;28;1847;-69
2021/10/15 11:04:33;;;;;;;;;;;22.30;57.70;;;;;;5087737;28;1902;-69
2021/10/15 11:07:02;;;;;;;;;;;22.30;57.80;;;;;;5074054;28;1165;-69
2021/10/15 11:09:31;;;;;;;;;;;22.20;57.70;;;;;;5095436;28;1404;-69
2021/10/15 11:11:56;;;;;;;;;;;22.20;57.80;;;;;;5095269;28;1256;-68
2021/10/15 11:14:24;;;;;;;;;;;22.20;57.80;;;;;;5076516;28;1241;-69
2021/10/15 11:16:49;;;;;;;;;;;22.20;57.90;;;;;;5095633;28;1366;-68
2021/10/15 11:19:18;;;;;;;;;;;22.20;57.90;;;;;;5095236;28;1470;-68
2021/10/15 11:21:44;;;;;;;;;;;22.20;57.90;;;;;;5077317;28;1276;-69
2021/10/15 11:24:11;;;;;;;;;;;22.20;57.90;;;;;;5075982;28;1973;-68
2021/10/15 11:26:36;;;;;;;;;;;22.20;57.90;;;;;;5092938;28;2006;-69
2021/10/15 11:29:02;;;;;;;;;;;22.20;57.90;;;;;;5091080;28;2200;-68
2021/10/15 11:31:27;;;;;;;;;;;22.20;57.90;;;;;;5095307;28;1074;-69
2021/10/15 11:33:52;;;;;;;;;;;22.20;57.90;;;;;;5076730;28;1082;-68
2021/10/15 11:36:18;;;;;;;;;;;22.20;57.90;;;;;;5094570;28;1134;-68
2021/10/15 11:38:44;;;;;;;;;;;22.20;57.90;;;;;;5094768;28;1319;-69
2021/10/15 11:41:09;;;;;;;;;;;22.30;57.90;;;;;;5095561;28;1309;-69
2021/10/15 11:43:35;;;;;;;;;;;22.20;57.80;;;;;;5095641;28;1114;-70
2021/10/15 11:46:05;;;;;;;;;;;22.30;57.80;;;;;;5095181;28;1890;-70
2021/10/15 11:48:34;;;;;;;;;;;22.30;57.80;;;;;;5076378;28;1383;-70
2021/10/15 11:51:10;;;;;;;;;;;22.30;57.80;;;;;;5094814;28;1323;-70
2021/10/15 11:53:40;;;;;;;;;;;22.30;57.70;;;;;;5077113;28;1286;-70
2021/10/15 11:56:06;;;;;;;;;;;22.30;57.60;;;;;;5076721;28;1397;-70
2021/10/15 11:58:41;;;;;;;;;;;22.40;57.60;;;;;;5066277;28;1777;-69
2021/10/15 12:01:19;;;;;;;;;;;22.40;57.60;;;;;;5076501;28;1304;-69
2021/10/15 12:03:50;;;;;;;;;;;22.40;57.50;;;;;;5095770;28;1914;-71
2021/10/15 12:06:18;;;;;;;;;;;22.40;57.50;;;;;;5089278;28;1153;-70
2021/10/15 12:08:44;;;;;;;;;;;22.40;57.50;;;;;;5093755;28;1317;-70
2021/10/15 12:11:11;;;;;;;;;;;22.40;57.40;;;;;;5075622;28;1645;-69
2021/10/15 12:13:37;;;;;;;;;;;22.40;57.40;;;;;;5093579;28;1131;-68
2021/10/15 12:16:15;;;;;;;;;;;22.50;57.50;;;;;;5077214;28;1314;-69
2021/10/15 12:18:41;;;;;;;;;;;22.40;57.40;;;;;;5085946;28;1570;-70
2021/10/15 12:21:10;;;;;;;;;;;22.40;57.40;;;;;;5075396;28;1370;-69
2021/10/15 12:23:51;;;;;;;;;;;22.40;57.40;;;;;;5075812;28;1111;-69
2021/10/15 12:26:20;;;;;;;;;;;22.40;57.40;;;;;;5074980;28;1453;-69
2021/10/15 12:28:45;;;;;;;;;;;22.40;57.50;;;;;;5075479;28;1251;-69
2021/10/15 12:31:28;;;;;;;;;;;22.40;57.50;;;;;;5093486;28;1393;-70
2021/10/15 12:34:06;;;;;;;;;;;22.40;57.60;;;;;;5093618;28;1320;-69
2021/10/15 12:36:31;;;;;;;;;;;22.40;57.60;;;;;;5092990;28;1027;-67
2021/10/15 12:39:15;;;;;;;;;;;22.40;57.60;;;;;;5092980;28;1448;-67
2021/10/15 12:41:40;;;;;;;;;;;22.40;57.70;;;;;;5093474;28;1290;-68
2021/10/15 12:44:21;;;;;;;;;;;22.40;57.60;;;;;;5093870;28;1959;-67
2021/10/15 12:47:12;;;;;;;;;;;22.40;57.70;;;;;;5093833;28;1256;-67
2021/10/15 12:50:00;;;;;;;;;;;22.40;57.70;;;;;;5070784;28;1393;-67
2021/10/15 12:52:29;;;;;;;;;;;22.40;57.70;;;;;;5075757;28;1187;-70
2021/10/15 12:54:55;;;;;;;;;;;22.30;57.70;;;;;;5093013;28;943;-71
2021/10/15 12:57:21;;;;;;;;;;;22.30;57.70;;;;;;5092180;28;2167;-71
2021/10/15 13:00:05;;;;;;;;;;;22.30;57.80;;;;;;5090621;28;1269;-72
2021/10/15 13:02:31;;;;;;;;;;;22.30;57.80;;;;;;5093161;28;1160;-70
2021/10/15 13:04:59;;;;;;;;;;;22.30;57.80;;;;;;5092914;28;1969;-71
2021/10/15 13:07:25;;;;;;;;;;;22.30;57.80;;;;;;5093727;28;1275;-69
2021/10/15 13:09:51;;;;;;;;;;;22.30;57.90;;;;;;5093334;28;1325;-70
2021/10/15 13:12:19;;;;;;;;;;;22.30;57.90;;;;;;5092943;28;1429;-70
2021/10/15 13:14:44;;;;;;;;;;;22.30;57.90;;;;;;5092710;28;1329;-69
2021/10/15 13:17:11;;;;;;;;;;;22.30;57.90;;;;;;5093024;28;1330;-70
2021/10/15 13:19:36;;;;;;;;;;;22.30;57.90;;;;;;5075203;28;1442;-69
2021/10/15 13:22:02;;;;;;;;;;;22.30;58.00;;;;;;5075204;28;1284;-70
2021/10/15 13:24:27;;;;;;;;;;;22.30;58.10;;;;;;5092176;28;1919;-69
2021/10/15 13:26:53;;;;;;;;;;;22.30;58.20;;;;;;5093024;28;1264;-69
2021/10/15 13:29:18;;;;;;;;;;;22.20;58.10;;;;;;5092648;28;1291;-69
2021/10/15 13:31:44;;;;;;;;;;;22.30;58.20;;;;;;5091081;28;2173;-69
2021/10/15 13:34:09;;;;;;;;;;;22.30;58.20;;;;;;5074216;28;1210;-69
2021/10/15 13:36:38;;;;;;;;;;;22.20;58.20;;;;;;5092968;28;1124;-69
2021/10/15 13:39:05;;;;;;;;;;;22.20;58.20;;;;;;5074765;28;1351;-69
2021/10/15 13:44:26;;;;;;;;;;;22.20;58.20;;;;;;5091656;28;1906;-68
2021/10/15 13:46:59;;;;;;;;;;;22.20;58.30;;;;;;5092755;28;1257;-69
2021/10/15 13:52:27;;;;;;;;;;;22.20;58.30;;;;;;5030131;28;1333;-70
2021/10/15 13:54:52;;;;;;;;;;;22.20;58.30;;;;;;5079186;28;1386;-70
2021/10/15 13:57:20;;;;;;;;;;;22.20;58.30;;;;;;5092488;28;1192;-71
2021/10/15 14:02:32;;;;;;;;;;;22.10;58.30;;;;;;5092835;28;1134;-71
2021/10/15 14:04:57;;;;;;;;;;;22.20;58.40;;;;;;5054347;28;1902;-71
2021/10/15 14:07:23;;;;;;;;;;;22.10;58.40;;;;;;5084050;28;1303;-71
2021/10/15 14:09:48;;;;;;;;;;;22.10;58.40;;;;;;5074316;28;1312;-71
2021/10/15 14:12:15;;;;;;;;;;;22.10;58.40;;;;;;5092552;28;1260;-70
2021/10/15 14:14:41;;;;;;;;;;;22.10;59.00;;;;;;5091878;28;1246;-70
2021/10/15 14:17:07;;;;;;;;;;;22.10;58.40;;;;;;5091808;28;1353;-70
2021/10/15 14:19:33;;;;;;;;;;;22.10;58.40;;;;;;5053922;28;1381;-70
2021/10/15 14:21:58;;;;;;;;;;;22.10;58.50;;;;;;5083698;28;1094;-70
2021/10/15 14:24:24;;;;;;;;;;;22.10;58.50;;;;;;5073663;28;1918;-71
2021/10/15 14:26:49;;;;;;;;;;;22.10;58.50;;;;;;5091824;28;1331;-70
2021/10/15 14:29:15;;;;;;;;;;;22.10;58.50;;;;;;5073897;28;1370;-70
2021/10/15 14:31:40;;;;;;;;;;;22.10;58.50;;;;;;5074227;28;1313;-70
2021/10/15 14:34:05;;;;;;;;;;;22.00;58.50;;;;;;5092118;28;1279;-70
2021/10/15 14:36:31;;;;;;;;;;;22.10;58.60;;;;;;5091790;28;1082;-70
2021/10/15 14:38:57;;;;;;;;;;;22.10;58.60;;;;;;5092281;28;1371;-70
2021/10/15 14:41:22;;;;;;;;;;;22.00;58.60;;;;;;5093691;28;1360;-70
2021/10/15 14:43:47;;;;;;;;;;;22.00;58.60;;;;;;5077699;28;1890;-70
2021/10/15 14:46:14;;;;;;;;;;;22.00;58.60;;;;;;5095202;28;1319;-70
2021/10/15 14:48:40;;;;;;;;;;;22.00;58.60;;;;;;5078537;28;1720;-71
2021/10/15 14:51:05;;;;;;;;;;;22.00;58.70;;;;;;5086211;28;1622;-70
2021/10/15 14:53:31;;;;;;;;;;;22.00;58.70;;;;;;5075683;28;1089;-70